Time;durP1;ratioP1;P1;durP2;ratioP2;P2;SDS_P1;SDS_P2;PMS_P1;PMS_P2;Temp;Humidity;BMP_temperature;BMP_pressure;BME280_temperature;BME280_humidity;BME280_pressure;Samples;Min_cycle;Max_cycle;Signal;HPM_P1;HPM_P2
2023/08/22 00:00:59;;;;;;;8.10;7.20;;;22.60;99.90;;;;;;6300725;28;20052;-81
2023/08/22 00:04:01;;;;;;;14.00;7.53;;;22.50;99.90;;;;;;6301938;28;20061;-82
2023/08/22 00:07:03;;;;;;;7.30;6.60;;;22.50;99.90;;;;;;6302224;28;20064;-82
2023/08/22 00:10:04;;;;;;;8.43;7.47;;;22.50;99.90;;;;;;6305422;28;20100;-80
2023/08/22 00:13:06;;;;;;;6.82;6.22;;;22.40;99.90;;;;;;6307787;28;20044;-81
2023/08/22 00:16:09;;;;;;;9.55;6.93;;;22.40;99.90;;;;;;6298637;28;20656;-81
2023/08/22 00:19:11;;;;;;;11.82;6.68;;;22.40;99.90;;;;;;6298819;28;20369;-81
2023/08/22 00:22:12;;;;;;;7.63;6.82;;;22.40;99.90;;;;;;6299110;28;20052;-80
2023/08/22 00:25:14;;;;;;;12.82;7.38;;;22.40;99.90;;;;;;6301330;28;20558;-82
2023/08/22 00:28:16;;;;;;;12.52;6.80;;;22.30;99.90;;;;;;6303950;28;20040;-81
2023/08/22 00:31:19;;;;;;;8.98;7.68;;;22.20;99.90;;;;;;6300820;28;20138;-82
2023/08/22 00:34:21;;;;;;;8.93;6.40;;;22.10;99.90;;;;;;6302206;28;20052;-81
2023/08/22 00:37:22;;;;;;;8.25;6.53;;;22.20;99.90;;;;;;6303787;28;20083;-81
2023/08/22 00:40:24;;;;;;;11.18;7.10;;;22.10;99.90;;;;;;6304245;28;20047;-81
2023/08/22 00:43:26;;;;;;;9.35;7.60;;;22.10;99.90;;;;;;6303859;28;20467;-81
2023/08/22 00:46:30;;;;;;;9.23;6.68;;;22.00;99.90;;;;;;6305657;28;20055;-82
2023/08/22 00:49:33;;;;;;;7.80;6.53;;;22.00;99.90;;;;;;6306106;28;20045;-81
2023/08/22 00:52:35;;;;;;;8.80;6.05;;;21.90;99.90;;;;;;6303262;28;20036;-81
2023/08/22 00:55:37;;;;;;;7.75;6.97;;;21.90;99.90;;;;;;6303896;28;20041;-82
2023/08/22 00:58:39;;;;;;;8.65;7.03;;;21.90;99.90;;;;;;6302895;28;20053;-81
2023/08/22 01:01:42;;;;;;;8.98;8.07;;;21.90;99.90;;;;;;6303678;28;20143;-82
2023/08/22 01:04:44;;;;;;;9.05;6.30;;;21.80;99.90;;;;;;6302852;28;20041;-82
2023/08/22 01:07:51;;;;;;;11.18;7.82;;;21.80;99.90;;;;;;6302855;28;20056;-82
2023/08/22 01:10:56;;;;;;;10.10;6.30;;;21.80;99.90;;;;;;6303367;28;20048;-80
2023/08/22 01:14:03;;;;;;;9.77;6.55;;;21.70;99.90;;;;;;6302507;28;20044;-81
2023/08/22 01:17:07;;;;;;;11.00;6.75;;;21.70;99.90;;;;;;6302451;28;20060;-81
2023/08/22 01:20:12;;;;;;;10.40;7.25;;;21.60;99.90;;;;;;6302910;28;20045;-82
2023/08/22 01:23:15;;;;;;;7.85;7.15;;;21.60;99.90;;;;;;6303267;28;20127;-81
2023/08/22 01:26:17;;;;;;;10.82;6.75;;;21.50;99.90;;;;;;6302663;28;20048;-80
2023/08/22 01:29:25;;;;;;;7.32;6.07;;;21.60;99.90;;;;;;6302191;28;20049;-82
2023/08/22 01:32:31;;;;;;;9.05;6.80;;;21.60;99.90;;;;;;6301984;28;20052;-81
2023/08/22 01:35:35;;;;;;;8.80;6.53;;;21.60;99.90;;;;;;6302209;28;20610;-82
2023/08/22 01:38:41;;;;;;;7.78;7.03;;;21.50;99.90;;;;;;6302182;28;20048;-82
2023/08/22 01:41:43;;;;;;;11.00;7.20;;;21.50;99.90;;;;;;6302952;28;20550;-82
2023/08/22 01:44:45;;;;;;;6.95;6.30;;;21.50;99.90;;;;;;6303105;28;20481;-82
2023/08/22 01:47:46;;;;;;;13.75;8.63;;;21.50;99.90;;;;;;6301726;28;20522;-81
2023/08/22 01:50:48;;;;;;;8.50;7.65;;;21.50;99.90;;;;;;6301683;28;20063;-82
2023/08/22 01:53:51;;;;;;;8.88;7.38;;;21.50;99.90;;;;;;6302604;28;20068;-82
2023/08/22 01:56:53;;;;;;;9.63;6.15;;;21.50;99.90;;;;;;6301909;28;20051;-82
2023/08/22 01:59:54;;;;;;;8.07;6.32;;;21.50;99.90;;;;;;6301467;28;20048;-82
2023/08/22 02:02:56;;;;;;;10.10;5.70;;;21.50;99.90;;;;;;6302509;28;20053;-81
2023/08/22 02:05:58;;;;;;;11.63;6.90;;;21.50;99.90;;;;;;6301651;28;20167;-82
2023/08/22 02:09:01;;;;;;;8.95;6.80;;;21.50;99.90;;;;;;6301714;28;20051;-82
2023/08/22 02:12:03;;;;;;;6.82;5.82;;;21.50;99.90;;;;;;6301657;28;20049;-81
2023/08/22 02:15:06;;;;;;;11.77;6.30;;;21.40;99.90;;;;;;6301301;28;20453;-82
2023/08/22 02:18:08;;;;;;;8.90;6.65;;;21.40;99.90;;;;;;6299768;28;20101;-82
2023/08/22 02:21:10;;;;;;;10.93;5.72;;;21.40;99.90;;;;;;6300988;28;20053;-82
2023/08/22 02:24:13;;;;;;;8.10;7.10;;;21.30;99.90;;;;;;6301406;28;20051;-82
2023/08/22 02:27:14;;;;;;;8.95;6.22;;;21.40;99.90;;;;;;6300882;28;20040;-82
2023/08/22 02:30:16;;;;;;;7.43;6.72;;;21.30;99.90;;;;;;6300230;28;20055;-82
2023/08/22 02:33:18;;;;;;;6.43;5.82;;;21.30;99.90;;;;;;6300766;28;20064;-81
2023/08/22 02:36:20;;;;;;;6.97;6.35;;;21.30;99.90;;;;;;6300595;28;20049;-81
2023/08/22 02:39:23;;;;;;;7.75;5.30;;;21.30;99.90;;;;;;6301893;28;20044;-82
2023/08/22 02:42:24;;;;;;;6.78;5.97;;;21.20;99.90;;;;;;6300758;28;20075;-82
2023/08/22 02:45:26;;;;;;;5.97;5.47;;;21.20;99.90;;;;;;6300726;28;20037;-82
2023/08/22 02:48:28;;;;;;;7.50;5.97;;;21.10;99.90;;;;;;6300335;28;20048;-81
2023/08/22 02:51:30;;;;;;;8.60;6.63;;;21.00;99.90;;;;;;6301089;28;20071;-82
2023/08/22 02:54:33;;;;;;;8.93;7.28;;;21.00;99.90;;;;;;6299499;28;20751;-81
2023/08/22 02:57:35;;;;;;;6.50;5.30;;;21.00;99.90;;;;;;6300074;28;20485;-82
2023/08/22 03:00:37;;;;;;;8.88;6.25;;;21.00;99.90;;;;;;6299141;28;20440;-82
2023/08/22 03:03:39;;;;;;;7.28;6.57;;;20.90;99.90;;;;;;6299486;28;20058;-82
2023/08/22 03:06:41;;;;;;;7.25;6.55;;;20.90;99.90;;;;;;6300275;28;20045;-82
2023/08/22 03:09:45;;;;;;;7.10;5.80;;;20.90;99.90;;;;;;6297511;28;20048;-82
2023/08/22 03:12:50;;;;;;;7.72;5.50;;;20.90;99.90;;;;;;6298904;28;20045;-81
2023/08/22 03:15:53;;;;;;;11.35;6.35;;;20.90;99.90;;;;;;6298302;28;20535;-82
2023/08/22 03:18:57;;;;;;;8.00;6.75;;;20.90;99.90;;;;;;6299666;28;20048;-81
2023/08/22 03:21:58;;;;;;;9.30;7.55;;;20.90;99.90;;;;;;6299514;28;20045;-81
2023/08/22 03:25:01;;;;;;;9.75;6.85;;;20.80;99.90;;;;;;6299025;28;20048;-81
2023/08/22 03:28:03;;;;;;;8.95;6.72;;;20.80;99.90;;;;;;6299616;28;20048;-81
2023/08/22 03:31:05;;;;;;;12.27;7.68;;;20.70;99.90;;;;;;6298848;28;20051;-82
2023/08/22 03:34:07;;;;;;;15.25;8.60;;;20.70;99.90;;;;;;6299280;28;20055;-81
2023/08/22 03:37:08;;;;;;;9.40;6.45;;;20.80;99.90;;;;;;6299263;28;20049;-81
2023/08/22 03:40:12;;;;;;;6.93;6.28;;;20.80;99.90;;;;;;6298884;28;20040;-81
2023/08/22 03:43:14;;;;;;;7.93;7.13;;;20.80;99.90;;;;;;6299561;28;20052;-81
2023/08/22 03:46:15;;;;;;;6.15;5.55;;;20.90;99.90;;;;;;6298447;28;20044;-81
2023/08/22 03:49:17;;;;;;;7.43;6.72;;;20.80;99.90;;;;;;6299625;28;20072;-81
2023/08/22 03:52:19;;;;;;;7.80;6.97;;;20.80;99.90;;;;;;6300496;28;20041;-81
2023/08/22 03:55:22;;;;;;;7.82;7.07;;;20.80;99.90;;;;;;6299455;28;20056;-81
2023/08/22 03:58:24;;;;;;;9.73;6.45;;;20.80;99.90;;;;;;6300182;28;20052;-80
2023/08/22 04:01:26;;;;;;;7.53;6.38;;;20.80;99.90;;;;;;6303652;28;20044;-80
2023/08/22 04:04:27;;;;;;;7.95;6.18;;;20.70;99.90;;;;;;6303898;28;20048;-82
2023/08/22 04:07:29;;;;;;;6.78;6.18;;;20.60;99.90;;;;;;6304743;28;20075;-81
2023/08/22 04:10:32;;;;;;;8.70;6.53;;;20.60;99.90;;;;;;6304698;28;20119;-80
2023/08/22 04:13:33;;;;;;;10.90;7.32;;;20.50;99.90;;;;;;6304978;28;20045;-79
2023/08/22 04:16:35;;;;;;;7.80;6.32;;;20.50;99.90;;;;;;6305680;28;20045;-81
2023/08/22 04:19:38;;;;;;;7.68;6.70;;;20.50;99.90;;;;;;6305559;28;20482;-80
2023/08/22 04:22:41;;;;;;;9.02;7.40;;;20.50;99.90;;;;;;6305210;28;20053;-82
2023/08/22 04:25:44;;;;;;;7.40;6.45;;;20.50;99.90;;;;;;6304507;28;20042;-81
2023/08/22 04:28:45;;;;;;;9.90;7.05;;;20.40;99.90;;;;;;6304877;28;20051;-82
2023/08/22 04:31:47;;;;;;;13.68;9.18;;;20.30;99.90;;;;;;6304422;28;20049;-82
2023/08/22 04:34:49;;;;;;;9.88;6.97;;;20.30;99.90;;;;;;6302907;28;20063;-81
2023/08/22 04:37:51;;;;;;;8.85;7.72;;;20.30;99.90;;;;;;6303354;28;20044;-81
2023/08/22 04:40:54;;;;;;;8.57;6.82;;;20.30;99.90;;;;;;6304159;28;20047;-81
2023/08/22 04:43:56;;;;;;;11.00;9.90;;;20.30;99.90;;;;;;6304441;28;20059;-82
2023/08/22 04:46:58;;;;;;;10.18;7.55;;;20.20;99.90;;;;;;6304386;28;20054;-82
2023/08/22 04:50:00;;;;;;;7.63;6.72;;;20.30;99.90;;;;;;6303065;28;20059;-81
2023/08/22 04:53:02;;;;;;;7.90;6.68;;;20.30;99.90;;;;;;6303650;28;20453;-82
2023/08/22 04:56:05;;;;;;;9.93;6.90;;;20.40;99.90;;;;;;6302514;28;20040;-80
2023/08/22 04:59:08;;;;;;;9.05;7.60;;;20.50;99.90;;;;;;6303467;28;20051;-80
2023/08/22 05:02:09;;;;;;;8.10;6.35;;;20.60;99.90;;;;;;6303063;28;20075;-80
2023/08/22 05:05:11;;;;;;;6.80;6.07;;;20.70;99.90;;;;;;6302710;28;20051;-81
2023/08/22 05:08:13;;;;;;;9.02;6.30;;;20.80;99.90;;;;;;6302565;28;20427;-80
2023/08/22 05:11:16;;;;;;;8.13;6.13;;;20.90;99.90;;;;;;6303044;28;20048;-80
2023/08/22 05:14:18;;;;;;;16.35;6.47;;;21.10;99.90;;;;;;6302433;28;20048;-81
2023/08/22 05:17:19;;;;;;;7.80;6.50;;;21.20;99.90;;;;;;6303184;28;20055;-80
2023/08/22 05:20:21;;;;;;;7.38;6.68;;;21.40;99.90;;;;;;6302077;28;20051;-81
2023/08/22 05:23:23;;;;;;;7.03;6.32;;;21.50;99.90;;;;;;6304386;28;20059;-81
2023/08/22 05:26:26;;;;;;;8.57;6.68;;;21.70;99.90;;;;;;6303726;28;20044;-81
2023/08/22 05:29:28;;;;;;;7.50;6.22;;;21.80;99.90;;;;;;6302398;28;20051;-80
2023/08/22 05:32:30;;;;;;;11.88;5.88;;;22.00;99.90;;;;;;6302205;28;20044;-81
2023/08/22 05:35:32;;;;;;;7.80;6.25;;;22.20;99.90;;;;;;6302964;28;20044;-81
2023/08/22 05:38:33;;;;;;;7.18;6.47;;;22.40;99.90;;;;;;6301939;28;20051;-82
2023/08/22 05:41:36;;;;;;;7.03;6.32;;;22.60;99.90;;;;;;6302572;28;20041;-80
2023/08/22 05:44:38;;;;;;;8.35;5.85;;;22.70;99.90;;;;;;6302278;28;20041;-80
2023/08/22 05:47:40;;;;;;;6.40;5.80;;;22.90;99.90;;;;;;6302248;28;20055;-83
2023/08/22 05:50:41;;;;;;;8.20;6.78;;;23.20;99.90;;;;;;6301501;28;20041;-82
2023/08/22 05:53:43;;;;;;;7.57;5.97;;;23.40;99.90;;;;;;6276672;28;20395;-81
2023/08/22 05:56:46;;;;;;;8.35;5.65;;;23.70;99.90;;;;;;6298110;28;20431;-81
2023/08/22 05:59:48;;;;;;;8.93;5.63;;;23.90;99.90;;;;;;6302733;28;20052;-82
2023/08/22 06:02:49;;;;;;;13.63;7.38;;;24.20;99.90;;;;;;6300930;28;20056;-81
2023/08/22 06:05:51;;;;;;;10.68;6.55;;;24.60;99.90;;;;;;6302206;28;20071;-81
2023/08/22 06:08:53;;;;;;;7.05;6.32;;;24.80;99.90;;;;;;6301799;28;20487;-80
2023/08/22 06:11:56;;;;;;;8.32;6.45;;;25.10;99.90;;;;;;6301863;28;20502;-80
2023/08/22 06:14:57;;;;;;;8.88;7.28;;;25.50;99.90;;;;;;6302361;28;20427;-80
2023/08/22 06:17:59;;;;;;;6.05;5.45;;;26.00;99.90;;;;;;6300952;28;20049;-81
2023/08/22 06:21:01;;;;;;;10.40;6.53;;;26.50;99.90;;;;;;6301934;28;20044;-82
2023/08/22 06:24:04;;;;;;;7.90;6.20;;;27.20;99.90;;;;;;6300099;28;20060;-81
2023/08/22 06:27:07;;;;;;;6.32;5.32;;;28.20;99.90;;;;;;6300299;28;20511;-81
2023/08/22 06:30:11;;;;;;;11.10;5.55;;;29.10;99.90;;;;;;6298440;28;20053;-83
2023/08/22 06:33:12;;;;;;;6.20;5.22;;;29.50;99.70;;;;;;6298755;28;20052;-82
2023/08/22 06:36:14;;;;;;;6.43;4.78;;;30.10;98.30;;;;;;6301428;28;20041;-82
2023/08/22 06:39:16;;;;;;;6.05;5.45;;;30.40;97.20;;;;;;6300558;28;20056;-81
2023/08/22 06:42:19;;;;;;;8.77;5.25;;;30.50;96.40;;;;;;6299149;28;20583;-81
2023/08/22 06:45:21;;;;;;;14.82;5.85;;;30.50;96.00;;;;;;6300027;28;20127;-81
2023/08/22 06:48:22;;;;;;;6.25;5.75;;;30.40;95.90;;;;;;6299306;28;20040;-80
2023/08/22 06:51:24;;;;;;;5.88;5.28;;;30.20;95.70;;;;;;6299437;28;20053;-82
2023/08/22 06:54:26;;;;;;;13.05;6.22;;;30.00;95.90;;;;;;6297993;28;20041;-80
2023/08/22 06:57:29;;;;;;;6.70;5.43;;;30.10;96.10;;;;;;6296533;28;20044;-81
2023/08/22 07:00:30;;;;;;;7.63;6.20;;;30.10;95.70;;;;;;6297056;28;20044;-80
2023/08/22 07:03:32;;;;;;;6.60;5.55;;;30.40;95.70;;;;;;6296544;28;20044;-80
2023/08/22 07:06:34;;;;;;;9.02;5.45;;;30.70;95.30;;;;;;6296517;28;20151;-80
2023/08/22 07:09:36;;;;;;;10.45;5.95;;;30.80;94.30;;;;;;6296401;28;20051;-79
2023/08/22 07:12:39;;;;;;;7.90;6.20;;;31.10;93.80;;;;;;6297251;28;20040;-80
2023/08/22 07:15:40;;;;;;;8.82;5.72;;;31.20;92.30;;;;;;6297378;28;20055;-80
2023/08/22 07:18:42;;;;;;;8.80;5.78;;;31.30;91.60;;;;;;6296500;28;20048;-79
2023/08/22 07:21:44;;;;;;;10.80;6.10;;;31.50;90.70;;;;;;6308961;28;20045;-79
2023/08/22 07:24:45;;;;;;;10.57;6.43;;;31.60;90.40;;;;;;6296922;28;20041;-79
2023/08/22 07:27:49;;;;;;;7.40;6.45;;;31.90;89.10;;;;;;6296609;28;20040;-79
2023/08/22 07:30:50;;;;;;;6.75;5.78;;;32.10;87.10;;;;;;6297476;28;20054;-80
2023/08/22 07:33:52;;;;;;;8.02;6.28;;;32.20;86.00;;;;;;6296696;28;20045;-79
2023/08/22 07:36:54;;;;;;;7.22;5.75;;;32.10;85.10;;;;;;6299847;28;20040;-79
2023/08/22 07:40:01;;;;;;;6.70;6.10;;;31.60;85.50;;;;;;6297780;28;20511;-79
2023/08/22 07:43:04;;;;;;;;;;;31.20;86.80;;;;;;6294420;28;20071;-81
2023/08/22 07:46:06;;;;;;;8.63;6.50;;;30.90;87.60;;;;;;6297808;28;19927;-80
2023/08/22 07:49:08;;;;;;;11.65;6.28;;;30.80;87.80;;;;;;6297625;28;20048;-79
2023/08/22 07:52:10;;;;;;;6.75;6.15;;;30.70;87.60;;;;;;6297075;28;20125;-78
2023/08/22 07:55:12;;;;;;;8.85;6.32;;;30.70;87.40;;;;;;6302266;28;20051;-79
2023/08/22 07:58:15;;;;;;;6.80;6.20;;;30.90;87.10;;;;;;6296929;28;20063;-80
2023/08/22 08:01:17;;;;;;;8.60;7.32;;;30.90;86.50;;;;;;6280281;28;20045;-79
2023/08/22 08:04:18;;;;;;;8.98;7.32;;;31.00;85.90;;;;;;6296822;28;20044;-78
2023/08/22 08:07:20;;;;;;;9.23;7.15;;;30.90;85.40;;;;;;6297199;28;20499;-79
2023/08/22 08:10:22;;;;;;;13.10;6.47;;;31.00;85.30;;;;;;6297926;28;20403;-79
2023/08/22 08:13:25;;;;;;;8.18;7.40;;;30.80;84.90;;;;;;6298662;28;20059;-78
2023/08/22 08:16:27;;;;;;;7.35;6.50;;;30.50;86.10;;;;;;6297133;28;20056;-79
2023/08/22 08:19:28;;;;;;;9.25;7.25;;;30.40;86.70;;;;;;6296624;28;20055;-79
2023/08/22 08:22:30;;;;;;;8.18;6.15;;;30.60;86.60;;;;;;6296710;28;20044;-80
2023/08/22 08:25:32;;;;;;;12.82;6.70;;;30.70;85.70;;;;;;6294658;28;20045;-80
2023/08/22 08:28:35;;;;;;;7.60;6.68;;;30.80;85.80;;;;;;6298610;28;20096;-80
2023/08/22 08:31:37;;;;;;;7.90;6.45;;;31.00;85.30;;;;;;6297817;28;20056;-80
2023/08/22 08:34:39;;;;;;;6.95;5.50;;;31.10;84.80;;;;;;6298733;28;20052;-79
2023/08/22 08:37:40;;;;;;;6.00;5.40;;;31.30;83.60;;;;;;6297504;28;20408;-79
2023/08/22 08:40:44;;;;;;;7.85;5.13;;;31.60;82.30;;;;;;6296191;28;20441;-81
2023/08/22 08:43:48;;;;;;;8.27;5.85;;;32.00;81.10;;;;;;6297701;28;20125;-82
2023/08/22 08:46:50;;;;;;;5.43;4.93;;;32.20;79.50;;;;;;6300957;28;20499;-81
2023/08/22 08:49:54;;;;;;;5.72;5.18;;;32.30;78.40;;;;;;6291972;28;20053;-79
2023/08/22 08:52:56;;;;;;;4.90;4.43;;;32.50;77.40;;;;;;6285611;28;20488;-78
2023/08/22 08:55:58;;;;;;;5.43;4.60;;;32.60;76.80;;;;;;6296781;28;20055;-79
2023/08/22 08:59:01;;;;;;;5.60;4.95;;;32.70;75.40;;;;;;6301753;28;20049;-79
2023/08/22 09:02:03;;;;;;;4.63;4.15;;;32.80;74.70;;;;;;6303755;28;20045;-82
2023/08/22 09:05:05;;;;;;;3.70;3.40;;;33.00;73.90;;;;;;6302762;28;20045;-80
2023/08/22 09:08:18;;;;;;;7.13;3.80;;;33.20;72.10;;;;;;6299910;28;20356;-80
2023/08/22 09:11:27;;;;;;;4.60;3.60;;;33.30;70.00;;;;;;6303192;28;20063;-80
2023/08/22 09:14:30;;;;;;;8.93;3.15;;;33.40;68.90;;;;;;6302762;28;20127;-79
2023/08/22 09:17:32;;;;;;;5.25;4.13;;;33.40;67.70;;;;;;6303584;28;20419;-81
2023/08/22 09:20:34;;;;;;;3.20;2.85;;;33.10;67.90;;;;;;6306130;28;20046;-79
2023/08/22 09:23:36;;;;;;;2.75;2.50;;;33.30;67.80;;;;;;6305553;28;20045;-79
2023/08/22 09:26:38;;;;;;;3.47;2.90;;;33.50;67.50;;;;;;6301574;28;20040;-79
2023/08/22 09:29:43;;;;;;;4.00;3.15;;;33.60;66.80;;;;;;6301562;28;20051;-78
2023/08/22 09:32:57;;;;;;;5.03;2.53;;;33.90;66.10;;;;;;6302110;28;20178;-80
2023/08/22 09:35:59;;;;;;;4.45;4.05;;;33.90;65.00;;;;;;6303060;28;20066;-81
2023/08/22 09:39:01;;;;;;;5.30;3.00;;;33.90;65.50;;;;;;6302047;28;20576;-80
2023/08/22 09:42:03;;;;;;;4.60;3.13;;;34.00;64.90;;;;;;6301064;28;20044;-80
2023/08/22 09:45:07;;;;;;;3.08;2.78;;;34.00;63.70;;;;;;6300912;28;20047;-80
2023/08/22 09:48:14;;;;;;;3.65;2.80;;;34.20;62.90;;;;;;6301148;28;20051;-80
2023/08/22 09:51:19;;;;;;;4.40;2.85;;;34.30;62.70;;;;;;6302933;28;20059;-81
2023/08/22 09:54:23;;;;;;;5.25;2.50;;;34.50;62.50;;;;;;6301069;28;20049;-80
2023/08/22 09:57:26;;;;;;;4.18;2.50;;;34.60;62.00;;;;;;6296146;28;20577;-80
2023/08/22 10:00:30;;;;;;;4.57;2.67;;;34.70;62.00;;;;;;6296117;28;20040;-80
2023/08/22 10:03:32;;;;;;;6.82;3.10;;;34.60;61.60;;;;;;6301889;28;20067;-80
2023/08/22 10:06:35;;;;;;;3.90;2.80;;;34.40;61.30;;;;;;6297187;28;20056;-83
2023/08/22 10:09:39;;;;;;;7.57;2.80;;;34.10;62.00;;;;;;6301305;28;20044;-83
2023/08/22 10:12:41;;;;;;;4.15;3.75;;;34.10;62.80;;;;;;6299744;28;20062;-83
2023/08/22 10:15:47;;;;;;;6.28;3.67;;;34.00;63.10;;;;;;6300916;28;20392;-82
2023/08/22 10:19:00;;;;;;;6.53;4.60;;;34.20;63.50;;;;;;6300676;28;20479;-79
2023/08/22 10:22:07;;;;;;;4.88;3.28;;;34.60;63.10;;;;;;6300374;28;20106;-80
2023/08/22 10:25:09;;;;;;;4.35;2.88;;;34.90;62.30;;;;;;6300851;28;20048;-80
2023/08/22 10:28:11;;;;;;;3.65;3.30;;;35.10;61.70;;;;;;6302239;28;20044;-80
2023/08/22 10:31:14;;;;;;;5.40;2.80;;;35.50;62.10;;;;;;6301849;28;20056;-81
2023/08/22 10:34:15;;;;;;;4.78;2.83;;;35.80;60.50;;;;;;6302327;28;20055;-80
2023/08/22 10:37:20;;;;;;;3.30;2.47;;;36.00;59.80;;;;;;6302566;28;20048;-80
2023/08/22 10:40:27;;;;;;;3.88;3.03;;;36.40;59.10;;;;;;6302677;28;20058;-80
2023/08/22 10:43:37;;;;;;;3.40;3.10;;;36.70;58.10;;;;;;6303497;28;20060;-80
2023/08/22 10:47:03;;;;;;;4.80;3.10;;;36.90;57.70;;;;;;6303000;28;20131;-80
2023/08/22 10:50:11;;;;;;;7.80;3.58;;;37.20;57.20;;;;;;6301199;28;20086;-80
2023/08/22 10:53:25;;;;;;;5.72;2.60;;;37.50;56.70;;;;;;6299634;28;20049;-80
2023/08/22 10:56:27;;;;;;;4.53;2.38;;;37.80;56.00;;;;;;6299594;28;20047;-80
2023/08/22 10:59:29;;;;;;;4.90;3.45;;;38.00;55.20;;;;;;6302022;28;20072;-80
2023/08/22 11:02:34;;;;;;;5.93;2.90;;;38.00;54.90;;;;;;6303125;28;20044;-80
2023/08/22 11:05:36;;;;;;;2.63;2.40;;;38.00;54.70;;;;;;6302819;28;20055;-79
2023/08/22 11:08:38;;;;;;;4.93;2.80;;;38.10;54.60;;;;;;6299028;28;20047;-81
2023/08/22 11:11:40;;;;;;;6.57;2.85;;;38.30;54.30;;;;;;6301508;28;20052;-81
2023/08/22 11:14:45;;;;;;;6.50;3.08;;;38.40;53.80;;;;;;6300987;28;20154;-82
2023/08/22 11:17:50;;;;;;;2.90;2.58;;;38.60;53.40;;;;;;6300508;28;20047;-81
2023/08/22 11:20:55;;;;;;;8.05;2.75;;;38.80;53.10;;;;;;6301029;28;20075;-81
2023/08/22 11:23:58;;;;;;;3.33;2.97;;;39.00;52.70;;;;;;6300326;28;20064;-81
2023/08/22 11:27:03;;;;;;;6.18;2.65;;;39.10;52.30;;;;;;6300496;28;20162;-80
2023/08/22 11:30:06;;;;;;;5.80;3.75;;;39.10;51.80;;;;;;6299815;28;20056;-81
2023/08/22 11:33:09;;;;;;;4.80;2.70;;;39.10;51.50;;;;;;6301357;28;20066;-81
2023/08/22 11:36:11;;;;;;;5.13;2.58;;;39.10;51.20;;;;;;6301528;28;20047;-80
2023/08/22 11:39:12;;;;;;;4.18;2.45;;;39.10;51.60;;;;;;6300844;28;20049;-80
2023/08/22 11:42:15;;;;;;;3.72;3.28;;;39.20;51.50;;;;;;6300415;28;20056;-79
2023/08/22 11:45:21;;;;;;;5.95;2.50;;;39.30;51.00;;;;;;6299439;28;20051;-80
2023/08/22 11:48:24;;;;;;;3.85;2.38;;;39.60;50.80;;;;;;6299894;28;20045;-80
2023/08/22 11:51:28;;;;;;;6.88;2.53;;;39.90;50.60;;;;;;6300773;28;20064;-80
2023/08/22 11:54:30;;;;;;;6.30;3.05;;;40.20;50.10;;;;;;6300253;28;20051;-80
2023/08/22 11:57:32;;;;;;;5.47;2.35;;;40.30;49.60;;;;;;6297881;28;20041;-80
2023/08/22 12:00:34;;;;;;;3.58;2.05;;;39.80;49.60;;;;;;6299958;28;20047;-80
2023/08/22 12:03:42;;;;;;;4.85;2.67;;;39.90;49.40;;;;;;6302160;28;20052;-80
2023/08/22 12:06:59;;;;;;;3.35;2.80;;;39.90;49.40;;;;;;6302562;28;20515;-80
2023/08/22 12:10:02;;;;;;;3.22;2.92;;;39.90;49.10;;;;;;6301986;28;20048;-80
2023/08/22 12:13:04;;;;;;;4.45;2.50;;;40.00;49.50;;;;;;6302722;28;20052;-81
2023/08/22 12:16:06;;;;;;;5.45;2.45;;;40.10;49.10;;;;;;6302398;28;20053;-80
2023/08/22 12:19:12;;;;;;;5.10;2.42;;;40.20;49.00;;;;;;6302955;28;20487;-81
2023/08/22 12:22:14;;;;;;;6.80;2.35;;;40.50;48.40;;;;;;6307184;28;20151;-81
2023/08/22 12:25:15;;;;;;;3.80;3.03;;;40.60;48.20;;;;;;6306912;28;20152;-80
2023/08/22 12:28:17;;;;;;;6.43;1.98;;;40.70;47.90;;;;;;6306745;28;20045;-80
2023/08/22 12:31:19;;;;;;;3.67;2.80;;;40.50;47.80;;;;;;6307501;28;20066;-80
2023/08/22 12:34:22;;;;;;;2.55;1.95;;;40.20;48.00;;;;;;6307297;28;20113;-81
2023/08/22 12:37:24;;;;;;;3.83;2.50;;;40.30;47.80;;;;;;6306937;28;20044;-81
2023/08/22 12:40:26;;;;;;;2.30;1.88;;;40.50;47.70;;;;;;6307554;28;20049;-80
2023/08/22 12:43:27;;;;;;;2.33;2.13;;;40.70;47.60;;;;;;6306963;28;20052;-80
2023/08/22 12:46:29;;;;;;;4.15;1.88;;;40.50;47.50;;;;;;6306545;28;20075;-81
2023/08/22 12:49:32;;;;;;;5.80;2.22;;;40.30;47.50;;;;;;6305849;28;20048;-79
2023/08/22 12:52:34;;;;;;;5.50;2.17;;;40.10;47.70;;;;;;6305849;28;20056;-82
2023/08/22 12:55:37;;;;;;;5.30;2.63;;;40.20;47.80;;;;;;6308465;28;20037;-81
2023/08/22 12:58:38;;;;;;;3.78;2.15;;;40.30;47.40;;;;;;6306676;28;20036;-80
2023/08/22 13:01:40;;;;;;;3.35;2.10;;;40.20;47.50;;;;;;6303749;28;20044;-81
2023/08/22 13:04:43;;;;;;;3.30;2.10;;;40.10;47.60;;;;;;6303398;28;20134;-81
2023/08/22 13:07:45;;;;;;;4.53;2.80;;;40.20;47.60;;;;;;6302909;28;20538;-80
2023/08/22 13:10:46;;;;;;;3.22;2.17;;;40.00;47.20;;;;;;6306444;28;20044;-81
2023/08/22 13:13:48;;;;;;;3.78;2.20;;;39.90;47.50;;;;;;6298966;28;20040;-80
2023/08/22 13:16:50;;;;;;;4.68;2.80;;;40.20;47.30;;;;;;6307211;28;20051;-80
2023/08/22 13:19:53;;;;;;;2.72;2.17;;;40.40;47.00;;;;;;6306706;28;20063;-80
2023/08/22 13:22:54;;;;;;;4.43;2.13;;;40.70;46.50;;;;;;6307831;28;20053;-81
2023/08/22 13:25:56;;;;;;;4.45;2.88;;;40.80;46.30;;;;;;6306451;28;20040;-80
2023/08/22 13:28:58;;;;;;;2.95;2.58;;;40.80;46.40;;;;;;6306773;28;20044;-79
2023/08/22 13:31:59;;;;;;;4.45;2.40;;;40.90;46.00;;;;;;6306396;28;20044;-81
2023/08/22 13:35:03;;;;;;;7.10;2.85;;;41.20;46.00;;;;;;6308022;28;20053;-81
2023/08/22 13:38:05;;;;;;;6.63;2.13;;;41.00;45.70;;;;;;6304769;28;20048;-79
2023/08/22 13:41:06;;;;;;;5.25;2.00;;;40.90;46.00;;;;;;6305326;28;20048;-81
2023/08/22 13:44:08;;;;;;;2.42;2.17;;;40.80;46.30;;;;;;6304149;28;20118;-81
2023/08/22 13:47:10;;;;;;;4.82;2.28;;;40.90;46.10;;;;;;6303808;28;20056;-81
2023/08/22 13:50:13;;;;;;;3.42;2.05;;;41.00;46.00;;;;;;6306190;28;20059;-81
2023/08/22 13:53:15;;;;;;;3.78;2.53;;;40.90;46.00;;;;;;6307908;28;20084;-80
2023/08/22 13:56:19;;;;;;;4.70;2.88;;;40.50;45.80;;;;;;6309023;28;20059;-80
2023/08/22 13:59:21;;;;;;;2.25;2.05;;;40.60;45.80;;;;;;6309821;28;20618;-81
2023/08/22 14:02:22;;;;;;;3.58;2.33;;;40.60;46.10;;;;;;6307604;28;20521;-80
2023/08/22 14:05:25;;;;;;;5.45;2.05;;;40.90;45.60;;;;;;6304122;28;20526;-80
2023/08/22 14:08:27;;;;;;;3.63;2.38;;;41.20;44.90;;;;;;6304218;28;20048;-80
2023/08/22 14:11:29;;;;;;;5.88;2.10;;;41.20;44.90;;;;;;6307496;28;20063;-82
2023/08/22 14:14:30;;;;;;;2.58;2.38;;;41.20;44.80;;;;;;6304932;28;20048;-86
2023/08/22 14:17:32;;;;;;;4.07;2.25;;;41.20;44.80;;;;;;6306469;28;20048;-84
2023/08/22 14:20:35;;;;;;;4.90;2.63;;;40.90;44.80;;;;;;6305177;28;20041;-82
2023/08/22 14:23:37;;;;;;;6.55;2.97;;;40.80;45.10;;;;;;6304988;28;20052;-82
2023/08/22 14:26:39;;;;;;;5.07;2.55;;;40.90;45.00;;;;;;6300869;28;20044;-79
2023/08/22 14:29:40;;;;;;;2.97;2.22;;;41.10;44.70;;;;;;6298834;28;20037;-81
2023/08/22 14:32:42;;;;;;;2.88;2.35;;;40.90;44.80;;;;;;6304319;28;20045;-80
2023/08/22 14:35:45;;;;;;;3.17;1.75;;;41.10;44.60;;;;;;6305085;28;20048;-81
2023/08/22 14:38:47;;;;;;;3.58;2.08;;;41.10;44.40;;;;;;6304299;28;20119;-80
2023/08/22 14:41:48;;;;;;;3.33;3.00;;;41.10;44.50;;;;;;6304500;28;20041;-81
2023/08/22 14:44:50;;;;;;;2.85;2.13;;;41.10;44.50;;;;;;6300368;28;20059;-81
2023/08/22 14:47:52;;;;;;;2.75;2.47;;;41.30;44.50;;;;;;6279656;28;20057;-80
2023/08/22 14:50:55;;;;;;;3.67;2.60;;;41.10;44.20;;;;;;6278768;28;20045;-80
2023/08/22 14:53:56;;;;;;;8.48;2.55;;;40.90;44.40;;;;;;6278948;28;20048;-79
2023/08/22 14:56:58;;;;;;;6.60;2.78;;;40.90;44.70;;;;;;6278985;28;20045;-80
2023/08/22 15:00:00;;;;;;;4.47;2.13;;;40.90;44.50;;;;;;6279432;28;20044;-80
2023/08/22 15:03:02;;;;;;;2.53;2.22;;;40.60;44.40;;;;;;6280227;28;20045;-81
2023/08/22 15:06:06;;;;;;;4.47;2.25;;;40.40;45.00;;;;;;6282008;28;20056;-80
2023/08/22 15:09:08;;;;;;;3.47;2.35;;;40.40;45.50;;;;;;6280844;28;20048;-81
2023/08/22 15:12:09;;;;;;;2.45;2.25;;;40.60;44.90;;;;;;6282633;28;20526;-81
2023/08/22 15:15:11;;;;;;;3.83;2.15;;;40.60;44.50;;;;;;6281211;28;20061;-80
2023/08/22 15:18:13;;;;;;;7.28;2.55;;;40.60;45.00;;;;;;6281442;28;20048;-82
2023/08/22 15:21:16;;;;;;;2.60;1.90;;;40.20;44.90;;;;;;6283744;28;20045;-81
2023/08/22 15:24:18;;;;;;;6.53;2.22;;;40.20;45.00;;;;;;6282371;28;20067;-80
2023/08/22 15:27:21;;;;;;;3.60;3.17;;;40.40;45.40;;;;;;6283194;28;20106;-82
2023/08/22 15:30:23;;;;;;;4.60;2.60;;;40.00;45.10;;;;;;6281560;28;20049;-80
2023/08/22 15:33:26;;;;;;;2.50;2.30;;;39.70;45.80;;;;;;6282247;28;20071;-81
2023/08/22 15:36:29;;;;;;;3.33;2.53;;;39.30;46.10;;;;;;6286888;28;20151;-80
2023/08/22 15:39:30;;;;;;;6.85;2.55;;;39.20;46.50;;;;;;6298578;28;20045;-79
2023/08/22 15:42:33;;;;;;;6.18;2.20;;;39.30;46.70;;;;;;6284422;28;20045;-81
2023/08/22 15:45:34;;;;;;;3.63;2.15;;;39.40;46.50;;;;;;6278754;28;20060;-81
2023/08/22 15:48:36;;;;;;;8.02;3.40;;;39.30;46.50;;;;;;6278985;28;20051;-80